Time;durP1;ratioP1;P1;durP2;ratioP2;P2;SDS_P1;SDS_P2;PMS_P1;PMS_P2;Temp;Humidity;BMP_temperature;BMP_pressure;BME280_temperature;BME280_humidity;BME280_pressure;Samples;Min_cycle;Max_cycle;Signal;HPM_P1;HPM_P2
2021/01/04 00:01:33;;;;;;;13.47;12.07;;;;;;;-0.55;100.00;97587.44;4999638;28;20596;-77
2021/01/04 00:04:10;;;;;;;12.87;11.57;;;;;;;-0.68;100.00;97595.25;4998711;28;20215;-79
2021/01/04 00:06:50;;;;;;;13.20;11.03;;;;;;;-0.68;100.00;97589.22;5004671;28;20217;-76
2021/01/04 00:09:25;;;;;;;14.53;12.07;;;;;;;-0.63;100.00;97580.16;5001706;28;20208;-79
2021/01/04 00:11:57;;;;;;;13.43;12.13;;;;;;;-0.52;100.00;97584.63;5005762;28;20232;-76
2021/01/04 00:14:35;;;;;;;12.90;11.13;;;;;;;-0.50;100.00;97579.34;4996709;28;20217;-75
2021/01/04 00:17:09;;;;;;;13.13;11.87;;;;;;;-0.61;100.00;97580.06;5001874;28;20240;-76
2021/01/04 00:19:39;;;;;;;15.63;13.17;;;;;;;-0.65;100.00;97584.63;5007916;28;20213;-77
2021/01/04 00:22:12;;;;;;;12.83;11.53;;;;;;;-0.66;100.00;97582.97;5003309;28;20551;-75
2021/01/04 00:24:46;;;;;;;15.47;12.30;;;;;;;-0.73;100.00;97582.56;5000340;28;20224;-77
2021/01/04 00:27:18;;;;;;;12.87;11.63;;;;;;;-0.65;100.00;97586.41;5005212;28;20556;-76
2021/01/04 00:29:45;;;;;;;13.23;11.73;;;;;;;-0.75;100.00;97586.19;5002473;28;20209;-77
2021/01/04 00:32:17;;;;;;;13.20;11.80;;;;;;;-0.68;100.00;97589.22;5011046;28;20442;-75
2021/01/04 00:34:46;;;;;;;13.57;12.00;;;;;;;-0.62;100.00;97583.59;4999986;28;20205;-77
2021/01/04 00:37:55;;;;;;;15.30;11.97;;;;;;;-0.62;100.00;97589.63;5004404;28;20208;-76
2021/01/04 00:40:35;;;;;;;12.27;10.87;;;;;;;-0.62;100.00;97588.81;4936438;28;20293;-78
2021/01/04 00:43:07;;;;;;;13.63;11.77;;;;;;;-0.62;100.00;97583.59;5003274;28;20213;-78
2021/01/04 00:45:38;;;;;;;13.13;11.77;;;;;;;-0.63;100.00;97587.97;4998554;28;20206;-76
2021/01/04 00:48:10;;;;;;;13.03;11.67;;;;;;;-0.54;100.00;97585.69;4992334;28;20204;-74
2021/01/04 00:50:52;;;;;;;14.83;12.13;;;;;;;-0.49;100.00;97583.63;4995177;28;20201;-77
2021/01/04 00:53:24;;;;;;;15.53;12.20;;;;;;;-0.56;100.00;97584.97;5001912;28;20197;-78
2021/01/04 00:56:03;;;;;;;12.87;11.60;;;;;;;-0.54;100.00;97585.69;4997776;28;20212;-77
2021/01/04 00:58:47;;;;;;;12.60;11.30;;;;;;;-0.62;100.00;97588.81;4997465;28;20713;-78
2021/01/04 01:01:16;;;;;;;12.30;11.10;;;;;;;-0.60;100.00;97592.97;5002628;28;20232;-76
2021/01/04 01:03:52;;;;;;;12.27;10.90;;;;;;;-0.57;100.00;97591.09;5009412;28;20442;-77
2021/01/04 01:06:27;;;;;;;13.63;11.33;;;;;;;-0.60;100.00;97579.94;5010165;28;20454;-76
2021/01/04 01:08:56;;;;;;;13.17;11.50;;;;;;;-0.57;100.00;97586.72;5008290;28;20225;-77
2021/01/04 01:11:37;;;;;;;14.20;11.03;;;;;;;-0.56;100.00;97588.41;5001405;28;20229;-76
2021/01/04 01:14:07;;;;;;;13.27;11.47;;;;;;;-0.62;100.00;97588.81;4999444;28;20338;-74
2021/01/04 01:16:58;;;;;;;13.77;12.20;;;;;;;-0.67;100.00;97585.69;5008714;28;20209;-77
2021/01/04 01:19:27;;;;;;;15.87;12.20;;;;;;;-0.51;100.00;97590.69;5008356;28;20608;-77
2021/01/04 01:21:55;;;;;;;14.20;12.50;;;;;;;-0.37;100.00;97592.38;5005606;28;20221;-76
2021/01/04 01:24:22;;;;;;;13.70;12.07;;;;;;;-0.56;100.00;97590.19;5013629;28;20212;-75
2021/01/04 01:27:32;;;;;;;15.33;12.27;;;;;;;-0.49;100.00;97596.63;5005415;28;20443;-77
2021/01/04 01:30:25;;;;;;;15.60;11.87;;;;;;;-0.65;100.00;97594.22;5004894;28;20244;-75
2021/01/04 01:33:06;;;;;;;13.80;12.07;;;;;;;-0.71;100.00;97595.47;5008913;28;20224;-73
2021/01/04 01:35:44;;;;;;;15.07;12.93;;;;;;;-0.55;100.00;97592.66;5006661;28;20459;-78
2021/01/04 01:38:41;;;;;;;14.53;13.13;;;;;;;-0.57;100.00;97598.91;5007044;28;20232;-76
2021/01/04 01:41:32;;;;;;;13.33;12.03;;;;;;;-0.52;100.00;97596.84;5002642;28;20475;-75
2021/01/04 01:44:06;;;;;;;13.10;11.53;;;;;;;-0.51;100.00;97599.31;5009600;28;20540;-78
2021/01/04 01:46:38;;;;;;;13.77;11.70;;;;;;;-0.27;100.00;97600.34;5014340;28;20853;-78
2021/01/04 01:49:18;;;;;;;12.87;11.57;;;;;;;-0.44;100.00;97602.34;5008951;28;20229;-77
2021/01/04 01:52:06;;;;;;;14.17;12.60;;;;;;;-0.52;100.00;97608.06;5006324;28;20712;-78
2021/01/04 01:55:12;;;;;;;13.30;11.90;;;;;;;-0.57;100.00;97601.50;5011761;28;20212;-76
2021/01/04 01:57:59;;;;;;;13.43;11.80;;;;;;;-0.53;100.00;97605.59;4987715;28;20691;-76
2021/01/04 02:00:34;;;;;;;13.97;11.37;;;;;;;-0.55;100.00;97617.88;5014477;28;20457;-77
2021/01/04 02:03:06;;;;;;;14.23;11.57;;;;;;;-0.48;100.00;97606.91;5005007;28;20228;-78
2021/01/04 02:05:56;;;;;;;13.53;11.57;;;;;;;-0.45;100.00;97614.53;5011255;28;20212;-75
2021/01/04 02:08:26;;;;;;;11.77;10.37;;;;;;;-0.52;100.00;97621.09;4995464;28;20460;-78
2021/01/04 02:10:57;;;;;;;14.70;12.20;;;;;;;-0.56;100.00;97616.22;5003280;28;20212;-78
2021/01/04 02:13:27;;;;;;;16.00;12.37;;;;;;;-0.59;100.00;97620.66;5008760;28;20666;-77
2021/01/04 02:16:00;;;;;;;17.57;13.50;;;;;;;-0.62;100.00;97620.88;5002131;28;20201;-76
2021/01/04 02:18:39;;;;;;;16.43;13.60;;;;;;;-0.58;100.00;97624.09;5010343;28;20316;-77
2021/01/04 02:21:42;;;;;;;16.20;13.93;;;;;;;-0.55;100.00;97625.69;5010363;28;20866;-78
2021/01/04 02:24:10;;;;;;;16.37;14.63;;;;;;;-0.63;100.00;97618.38;5001701;28;20211;-77
2021/01/04 02:26:41;;;;;;;16.70;14.13;;;;;;;-0.54;100.00;97627.34;5012389;28;20639;-77
2021/01/04 02:29:11;;;;;;;17.00;12.27;;;;;;;-0.35;100.00;97622.56;4999522;28;20207;-76
2021/01/04 02:31:40;;;;;;;15.73;13.37;;;;;;;-0.39;100.00;97628.91;5003835;28;20227;-77
2021/01/04 02:34:09;;;;;;;17.93;14.27;;;;;;;-0.58;100.00;97631.91;5003359;28;20231;-76
2021/01/04 02:36:39;;;;;;;15.93;14.27;;;;;;;-0.55;100.00;97629.09;5004158;28;20224;-78
2021/01/04 02:39:10;;;;;;;17.47;13.87;;;;;;;-0.54;100.00;97625.56;5005154;28;20225;-77
2021/01/04 02:41:42;;;;;;;17.37;13.80;;;;;;;-0.64;100.00;97627.13;4998190;28;20671;-75
2021/01/04 02:46:39;;;;;;;15.20;13.60;;;;;;;-0.69;100.00;97637.00;5000295;28;20455;-76
2021/01/04 02:49:11;;;;;;;18.97;14.50;;;;;;;-0.75;100.00;97633.88;5007036;28;20871;-77
2021/01/04 02:51:41;;;;;;;20.70;15.07;;;;;;;-0.72;100.00;97632.84;5012720;28;20252;-76
2021/01/04 02:54:18;;;;;;;19.90;14.17;;;;;;;-0.55;100.00;97630.88;5006687;28;20468;-79
2021/01/04 02:56:53;;;;;;;19.33;15.77;;;;;;;-0.59;100.00;97638.88;5000560;28;20447;-76
2021/01/04 02:59:33;;;;;;;16.60;13.57;;;;;;;-0.52;100.00;97639.31;5003617;28;20683;-79
2021/01/04 03:02:05;;;;;;;18.10;14.07;;;;;;;-0.45;100.00;97635.34;5003738;28;20597;-75
2021/01/04 03:04:34;;;;;;;17.73;15.00;;;;;;;-0.56;100.00;97639.63;5000801;28;20236;-77
2021/01/04 03:07:07;;;;;;;16.23;14.47;;;;;;;-0.67;100.00;97643.75;5006095;28;20233;-78
2021/01/04 03:09:35;;;;;;;19.73;15.63;;;;;;;-0.69;100.00;97639.63;5010979;28;20236;-77
2021/01/04 03:12:06;;;;;;;17.50;14.97;;;;;;;-0.69;100.00;97644.81;5004953;28;20239;-77
2021/01/04 03:14:48;;;;;;;20.30;15.37;;;;;;;-0.72;100.00;97635.44;5007136;28;20211;-76
2021/01/04 03:17:21;;;;;;;19.03;15.20;;;;;;;-0.71;100.00;97639.69;5005007;28;20200;-77
2021/01/04 03:19:52;;;;;;;20.53;16.27;;;;;;;-0.63;100.00;97639.19;5008255;28;20224;-76
2021/01/04 03:22:19;;;;;;;18.83;14.27;;;;;;;-0.64;100.00;97632.34;5007495;28;20672;-75
2021/01/04 03:24:48;;;;;;;19.00;14.10;;;;;;;-0.67;100.00;97638.56;5005029;28;20226;-77
2021/01/04 03:27:21;;;;;;;16.23;13.87;;;;;;;-0.59;100.00;97631.06;5008200;28;20227;-78
2021/01/04 03:29:48;;;;;;;23.73;15.07;;;;;;;-0.65;100.00;97625.47;5005895;28;20209;-77
2021/01/04 03:32:15;;;;;;;17.40;14.90;;;;;;;-0.65;100.00;97622.84;5018589;28;20220;-77
2021/01/04 03:34:42;;;;;;;20.70;15.93;;;;;;;-0.57;100.00;97611.91;5006193;28;20219;-78
2021/01/04 03:37:09;;;;;;;20.97;14.70;;;;;;;-0.61;100.00;97614.72;5007137;28;20235;-77
2021/01/04 03:39:36;;;;;;;18.83;14.97;;;;;;;-0.64;100.00;97614.94;5007092;28;20740;-76
2021/01/04 03:42:04;;;;;;;21.20;15.83;;;;;;;-0.64;100.00;97614.13;5002396;28;20290;-77
2021/01/04 03:44:31;;;;;;;24.47;16.60;;;;;;;-0.55;100.00;97615.28;5012407;28;20216;-76
2021/01/04 03:46:58;;;;;;;27.23;18.17;;;;;;;-0.65;100.00;97612.44;5002998;28;20227;-77
2021/01/04 03:49:27;;;;;;;25.40;17.00;;;;;;;-0.63;100.00;97613.19;5005072;28;20213;-77
2021/01/04 03:51:55;;;;;;;31.03;18.90;;;;;;;-0.61;100.00;97613.91;5011092;28;20213;-78
2021/01/04 03:54:22;;;;;;;28.57;18.70;;;;;;;-0.62;100.00;97615.66;5006949;28;20211;-75
2021/01/04 03:56:52;;;;;;;27.60;18.77;;;;;;;-0.61;100.00;97624.31;5006374;28;20212;-77
2021/01/04 03:59:20;;;;;;;33.93;19.30;;;;;;;-0.65;100.00;97621.06;5007860;28;20271;-76
2021/01/04 04:01:48;;;;;;;33.27;19.93;;;;;;;-0.63;100.00;97623.59;5000987;28;20231;-78
2021/01/04 04:04:15;;;;;;;31.17;18.80;;;;;;;-0.66;100.00;97624.59;5000610;28;20215;-79
2021/01/04 04:06:42;;;;;;;34.90;20.57;;;;;;;-0.67;100.00;97622.94;5005027;28;20208;-78
2021/01/04 04:09:10;;;;;;;43.97;23.40;;;;;;;-0.66;100.00;97621.19;5002469;28;20200;-77
2021/01/04 04:11:37;;;;;;;38.63;22.87;;;;;;;-0.60;100.00;97618.16;5014477;28;20224;-78
2021/01/04 04:14:04;;;;;;;42.67;23.70;;;;;;;-0.47;100.00;97626.81;5004694;28;20208;-80
2021/01/04 04:16:33;;;;;;;43.73;24.17;;;;;;;-0.52;100.00;97620.28;5010909;28;20216;-77
2021/01/04 04:19:00;;;;;;;41.03;23.83;;;;;;;-0.49;100.00;97617.47;5008712;28;20239;-79
2021/01/04 04:21:27;;;;;;;43.73;22.70;;;;;;;-0.52;100.00;97617.66;5006185;28;20480;-80
2021/01/04 04:23:54;;;;;;;45.00;23.63;;;;;;;-0.55;100.00;97625.69;5003497;28;20522;-77
2021/01/04 04:26:24;;;;;;;33.63;22.13;;;;;;;-0.57;100.00;97617.97;5003530;28;20204;-77
2021/01/04 04:28:51;;;;;;;39.97;21.53;;;;;;;-0.54;100.00;97624.75;5008294;28;20578;-79
2021/01/04 04:31:18;;;;;;;37.07;22.83;;;;;;;-0.56;100.00;97622.22;5003868;28;20301;-76
2021/01/04 04:33:47;;;;;;;40.33;24.20;;;;;;;-0.57;100.00;97624.94;5008647;28;20216;-80
2021/01/04 04:36:18;;;;;;;39.07;23.40;;;;;;;-0.48;100.00;97622.53;5006242;28;20205;-79
2021/01/04 04:38:45;;;;;;;36.30;21.90;;;;;;;-0.55;100.00;97628.28;5004616;28;20237;-79
2021/01/04 04:41:21;;;;;;;39.57;21.60;;;;;;;-0.59;100.00;97619.84;5002809;28;20237;-77
2021/01/04 04:43:50;;;;;;;42.83;23.93;;;;;;;-0.59;100.00;97625.03;5008993;28;20204;-78
2021/01/04 04:46:24;;;;;;;40.00;23.17;;;;;;;-0.62;100.00;97620.88;5011838;28;20207;-80
2021/01/04 04:48:55;;;;;;;43.60;24.83;;;;;;;-0.60;100.00;97629.41;5008294;28;20208;-79
2021/01/04 04:51:42;;;;;;;40.80;24.13;;;;;;;-0.61;100.00;97619.09;5002258;28;20637;-77
2021/01/04 04:54:30;;;;;;;39.50;24.13;;;;;;;-0.61;100.00;97630.34;5008823;28;20204;-78
2021/01/04 04:57:07;;;;;;;45.10;25.03;;;;;;;-0.50;100.00;97631.41;4998709;28;20211;-77
2021/01/04 04:59:45;;;;;;;39.03;23.63;;;;;;;-0.57;100.00;97636.19;5007638;28;20632;-81
2021/01/04 05:02:15;;;;;;;37.20;24.20;;;;;;;-0.57;100.00;97632.72;5001530;28;20221;-77
2021/01/04 05:05:03;;;;;;;33.57;22.47;;;;;;;-0.63;100.00;97631.41;5003492;28;20224;-79
2021/01/04 05:07:45;;;;;;;38.13;23.07;;;;;;;-0.68;100.00;97633.47;5001964;28;20672;-78
2021/01/04 05:10:15;;;;;;;39.73;24.17;;;;;;;-0.67;100.00;97641.16;5000882;28;20394;-79
2021/01/04 05:12:58;;;;;;;38.13;23.93;;;;;;;-0.71;100.00;97637.09;5003100;28;20234;-77
2021/01/04 05:15:54;;;;;;;41.27;23.03;;;;;;;-0.71;100.00;97641.50;5002346;28;20447;-77
2021/01/04 05:19:12;;;;;;;37.37;23.83;;;;;;;-0.77;100.00;97637.50;4995383;28;20709;-77
2021/01/04 05:22:08;;;;;;;44.50;25.67;;;;;;;-0.74;100.00;97643.34;4946992;28;20252;-76
2021/01/04 05:24:48;;;;;;;40.67;22.90;;;;;;;-0.70;100.00;97645.75;5006038;28;20208;-77
2021/01/04 05:27:54;;;;;;;34.77;23.00;;;;;;;-0.65;100.00;97641.06;5008777;28;20447;-77
2021/01/04 05:30:30;;;;;;;36.40;24.40;;;;;;;-0.71;100.00;97638.88;5002832;28;20212;-76
2021/01/04 05:33:38;;;;;;;42.87;24.60;;;;;;;-0.65;100.00;97638.47;5008389;28;20227;-72
2021/01/04 05:36:13;;;;;;;33.90;22.97;;;;;;;-0.49;100.00;97641.69;4977232;28;20204;-76
2021/01/04 05:38:46;;;;;;;38.00;23.73;;;;;;;-0.54;100.00;97632.56;5001326;28;20367;-76
2021/01/04 05:41:50;;;;;;;38.83;22.93;;;;;;;-0.40;100.00;97640.25;5011403;28;20324;-75
2021/01/04 05:44:30;;;;;;;34.73;21.70;;;;;;;-0.33;100.00;97638.09;5001476;28;20684;-76
2021/01/04 05:47:04;;;;;;;33.97;23.40;;;;;;;-0.18;100.00;97641.41;5000690;28;20215;-71
2021/01/04 05:49:33;;;;;;;31.70;21.30;;;;;;;-0.40;100.00;97644.63;5008752;28;20209;-76
2021/01/04 05:52:00;;;;;;;37.60;23.47;;;;;;;-0.36;100.00;97646.91;5005465;28;20224;-77
2021/01/04 05:54:30;;;;;;;35.37;23.47;;;;;;;-0.44;100.00;97644.81;5009038;28;20213;-76
2021/01/04 05:57:08;;;;;;;34.37;22.70;;;;;;;-0.55;100.00;97646.50;5000057;28;20205;-75
2021/01/04 05:59:46;;;;;;;32.67;22.43;;;;;;;-0.62;100.00;97646.06;4997922;28;20587;-76
2021/01/04 06:02:21;;;;;;;38.67;24.10;;;;;;;-0.53;100.00;97652.44;4993867;28;20224;-76
2021/01/04 06:04:48;;;;;;;40.17;23.83;;;;;;;-0.60;100.00;97657.22;4995068;28;20220;-77
2021/01/04 06:07:16;;;;;;;35.33;23.77;;;;;;;-0.66;100.00;97660.22;4997416;28;20236;-77
2021/01/04 06:09:54;;;;;;;36.50;22.00;;;;;;;-0.52;100.00;97654.09;5003039;28;20201;-76
2021/01/04 06:12:30;;;;;;;36.93;23.30;;;;;;;-0.62;100.00;97667.72;5002003;28;20574;-75
2021/01/04 06:14:58;;;;;;;35.50;23.43;;;;;;;-0.67;100.00;97661.97;5019624;28;20694;-75
2021/01/04 06:17:30;;;;;;;35.53;21.73;;;;;;;-0.68;100.00;97656.91;5002209;28;20215;-73
2021/01/04 06:20:02;;;;;;;32.50;21.87;;;;;;;-0.68;100.00;97662.09;5004565;28;20217;-73
2021/01/04 06:22:30;;;;;;;38.67;24.27;;;;;;;-0.60;100.00;97662.41;5012062;28;20488;-75
2021/01/04 06:25:05;;;;;;;33.07;22.07;;;;;;;-0.61;100.00;97661.56;5003180;28;20471;-74
2021/01/04 06:27:37;;;;;;;30.93;21.37;;;;;;;-0.59;100.00;97662.31;5003058;28;20466;-70
2021/01/04 06:30:26;;;;;;;32.37;21.27;;;;;;;-0.44;100.00;97667.44;5000219;28;20232;-72
2021/01/04 06:32:54;;;;;;;35.87;22.93;;;;;;;-0.46;100.00;97664.94;4995150;28;20630;-72
2021/01/04 06:35:24;;;;;;;36.10;22.57;;;;;;;-0.53;100.00;97665.47;4997485;28;20205;-73
2021/01/04 06:38:06;;;;;;;35.73;22.47;;;;;;;-0.63;100.00;97673.84;5001684;28;20246;-75
2021/01/04 06:40:36;;;;;;;29.30;19.77;;;;;;;-0.59;100.00;97664.91;5011571;28;20243;-74
2021/01/04 06:43:19;;;;;;;37.17;24.00;;;;;;;-0.54;100.00;97658.59;5001903;28;20597;-74
2021/01/04 06:46:06;;;;;;;32.40;21.23;;;;;;;-0.55;100.00;97656.91;5012771;28;20205;-75
2021/01/04 06:48:38;;;;;;;32.70;21.37;;;;;;;-0.58;100.00;97657.94;5007936;28;20212;-74
2021/01/04 06:51:40;;;;;;;34.63;21.70;;;;;;;-0.52;100.00;97660.13;5006125;28;20230;-75
2021/01/04 06:54:40;;;;;;;36.40;23.00;;;;;;;-0.42;100.00;97662.13;4983953;28;20201;-74
2021/01/04 06:57:38;;;;;;;30.27;19.63;;;;;;;-0.40;100.00;97675.84;4989264;28;20760;-74
2021/01/04 07:00:29;;;;;;;30.10;20.63;;;;;;;-0.38;100.00;97669.63;5004561;28;20227;-75
2021/01/04 07:03:29;;;;;;;27.97;20.43;;;;;;;-0.50;100.00;97660.03;5007347;28;20225;-75
2021/01/04 07:06:10;;;;;;;30.00;20.87;;;;;;;-0.54;100.00;97666.41;4969932;28;20677;-75
2021/01/04 07:09:16;;;;;;;29.57;21.20;;;;;;;-0.57;100.00;97666.56;5005754;28;20216;-76
2021/01/04 07:11:46;;;;;;;33.33;18.97;;;;;;;-0.39;100.00;97669.72;5010238;28;20232;-75
2021/01/04 07:14:38;;;;;;;23.03;16.37;;;;;;;-0.49;100.00;97670.34;5007344;28;20208;-74
2021/01/04 07:17:34;;;;;;;26.57;18.73;;;;;;;-0.53;100.00;97668.88;5001039;28;21168;-74
2021/01/04 07:20:14;;;;;;;24.70;16.30;;;;;;;-0.42;100.00;97670.78;4998469;28;20224;-76
2021/01/04 07:22:50;;;;;;;23.63;17.53;;;;;;;-0.53;100.00;97668.88;5001680;28;20263;-76
2021/01/04 07:25:24;;;;;;;22.87;16.50;;;;;;;-0.56;100.00;97668.28;4995224;28;20493;-75
2021/01/04 07:27:55;;;;;;;25.23;17.97;;;;;;;-0.57;100.00;97672.63;4997433;28;20298;-73
2021/01/04 07:30:33;;;;;;;22.30;17.30;;;;;;;-0.58;100.00;97668.34;4994786;28;20205;-76
2021/01/04 07:33:04;;;;;;;21.50;16.50;;;;;;;-0.59;100.00;97670.09;4992867;28;20280;-74
2021/01/04 07:35:35;;;;;;;25.10;16.73;;;;;;;-0.53;100.00;97665.47;4996123;28;20225;-72
2021/01/04 07:38:30;;;;;;;22.17;14.90;;;;;;;-0.52;100.00;97667.13;4997075;28;20208;-73
2021/01/04 07:41:41;;;;;;;22.77;16.10;;;;;;;-0.53;100.00;97673.28;5001373;28;20212;-73
2021/01/04 07:44:20;;;;;;;23.20;16.10;;;;;;;-0.60;100.00;97671.03;4993147;28;20201;-74
2021/01/04 07:47:36;;;;;;;19.40;14.83;;;;;;;-0.63;100.00;97667.84;5005197;28;20244;-76
2021/01/04 07:50:37;;;;;;;22.03;16.90;;;;;;;-0.42;100.00;97675.13;5001973;28;20218;-72
2021/01/04 07:53:25;;;;;;;22.63;15.93;;;;;;;-0.19;100.00;97682.25;5003698;28;20510;-76
2021/01/04 07:56:09;;;;;;;18.13;14.23;;;;;;;-0.42;100.00;97688.16;4998431;28;20215;-77
2021/01/04 07:58:55;;;;;;;18.53;15.47;;;;;;;-0.38;100.00;97685.25;4996793;28;20204;-74
2021/01/04 08:02:23;;;;;;;17.53;14.03;;;;;;;-0.54;100.00;97682.00;5007772;28;20609;-73
2021/01/04 08:05:22;;;;;;;17.17;13.27;;;;;;;-0.51;100.00;97679.22;4998263;28;20208;-71
2021/01/04 08:08:15;;;;;;;19.00;14.27;;;;;;;-0.36;100.00;97691.19;5001416;28;20213;-75
2021/01/04 08:11:26;;;;;;;15.83;13.47;;;;;;;-0.33;100.00;97696.19;4992508;28;20537;-74
2021/01/04 08:14:26;;;;;;;17.30;14.43;;;;;;;-0.31;100.00;97701.31;5000751;28;20200;-72
2021/01/04 08:16:55;;;;;;;16.83;13.43;;;;;;;-0.40;100.00;97694.09;4946759;28;20287;-73
2021/01/04 08:19:24;;;;;;;17.13;13.97;;;;;;;-0.46;100.00;97695.34;5007840;28;20232;-75
2021/01/04 08:21:58;;;;;;;18.90;13.90;;;;;;;-0.43;100.00;97702.94;5007743;28;20232;-74
2021/01/04 08:24:32;;;;;;;16.90;14.53;;;;;;;-0.23;100.00;97695.56;5008714;28;20581;-74
2021/01/04 08:27:15;;;;;;;16.27;12.67;;;;;;;-0.05;100.00;97690.88;5007587;28;20692;-75
2021/01/04 08:29:48;;;;;;;17.43;14.40;;;;;;;-0.21;100.00;97696.28;4991747;28;20288;-75
2021/01/04 08:32:19;;;;;;;13.97;12.53;;;;;;;-0.20;100.00;97697.97;4997489;28;20225;-75
2021/01/04 08:34:47;;;;;;;15.07;12.47;;;;;;;-0.19;100.00;97702.22;4994621;28;20204;-75
2021/01/04 08:37:16;;;;;;;19.93;13.40;;;;;;;-0.38;100.00;97700.88;4993090;28;20201;-74
2021/01/04 08:39:47;;;;;;;14.83;12.43;;;;;;;-0.38;100.00;97706.09;4995043;28;20260;-75
2021/01/04 08:42:30;;;;;;;15.77;13.37;;;;;;;-0.25;100.00;97697.44;4997900;28;20731;-74
2021/01/04 08:45:00;;;;;;;18.80;13.73;;;;;;;-0.25;100.00;97715.66;4999047;28;20456;-72
2021/01/04 08:47:30;;;;;;;17.17;13.80;;;;;;;-0.24;100.00;97712.13;4996406;28;20205;-75
2021/01/04 08:50:11;;;;;;;17.80;13.43;;;;;;;-0.17;100.00;97713.41;5003396;28;20220;-75
2021/01/04 08:52:44;;;;;;;16.40;14.30;;;;;;;-0.24;100.00;97719.94;4997805;28;20227;-71
2021/01/04 08:55:24;;;;;;;15.00;13.10;;;;;;;-0.18;100.00;97716.94;4994972;28;20234;-75
2021/01/04 08:57:51;;;;;;;15.80;14.10;;;;;;;-0.01;100.00;97716.63;4996545;28;20444;-71
2021/01/04 09:00:22;;;;;;;14.30;12.40;;;;;;;-0.07;100.00;97708.38;4997865;28;20297;-74
2021/01/04 09:02:49;;;;;;;14.07;12.60;;;;;;;-0.01;100.00;97703.59;4995242;28;20984;-74
2021/01/04 09:05:30;;;;;;;14.07;12.53;;;;;;;-0.17;100.00;97709.00;5003951;28;20502;-75
2021/01/04 09:07:58;;;;;;;14.43;11.70;;;;;;;-0.10;100.00;97713.81;4998023;28;20223;-74
2021/01/04 09:10:27;;;;;;;13.00;11.27;;;;;;;-0.11;100.00;97715.59;5002884;28;20209;-74
2021/01/04 09:13:08;;;;;;;12.50;11.20;;;;;;;0.05;100.00;97711.94;5005805;28;20283;-74
2021/01/04 09:15:37;;;;;;;12.57;10.57;;;;;;;-0.24;100.00;97714.72;5003200;28;20844;-74
2021/01/04 09:18:10;;;;;;;14.43;11.90;;;;;;;-0.06;100.00;97713.50;5006051;28;20208;-77
2021/01/04 09:20:47;;;;;;;11.73;10.53;;;;;;;-0.17;100.00;97706.41;4999356;28;20225;-75
2021/01/04 09:23:27;;;;;;;11.73;10.50;;;;;;;-0.07;100.00;97709.25;5003666;28;20203;-76
2021/01/04 09:25:56;;;;;;;14.37;11.37;;;;;;;0.13;100.00;97704.44;5004303;28;20211;-73
2021/01/04 09:28:24;;;;;;;14.03;11.20;;;;;;;-0.05;100.00;97704.75;5007981;28;20212;-75
2021/01/04 09:30:52;;;;;;;14.27;11.20;;;;;;;-0.21;100.00;97712.78;5009626;28;20408;-74
2021/01/04 09:33:21;;;;;;;13.83;10.80;;;;;;;0.03;100.00;97706.84;5013652;28;20318;-74
2021/01/04 09:35:48;;;;;;;15.87;11.83;;;;;;;0.04;100.00;97702.44;5012027;28;20573;-74
2021/01/04 09:38:20;;;;;;;14.47;11.63;;;;;;;-0.10;100.00;97704.25;5012124;28;20298;-74
2021/01/04 09:40:48;;;;;;;14.70;12.37;;;;;;;-0.02;100.00;97712.34;4998206;28;20319;-74
2021/01/04 09:43:22;;;;;;;15.23;11.27;;;;;;;-0.03;100.00;97718.50;5011088;28;20655;-74
2021/01/04 09:45:49;;;;;;;14.60;12.00;;;;;;;-0.18;100.00;97712.56;5008034;28;20305;-75
2021/01/04 09:48:24;;;;;;;13.20;11.77;;;;;;;-0.09;100.00;97718.06;5005416;28;20897;-77
2021/01/04 09:50:54;;;;;;;13.53;12.17;;;;;;;-0.17;100.00;97721.22;5009508;28;20203;-75
2021/01/04 09:53:25;;;;;;;11.33;10.10;;;;;;;-0.05;100.00;97717.78;5010149;28;20212;-74
2021/01/04 09:55:58;;;;;;;12.40;11.03;;;;;;;-0.03;100.00;97725.47;5010664;28;20215;-74
2021/01/04 09:58:26;;;;;;;12.23;10.50;;;;;;;-0.09;100.00;97728.50;5005696;28;20365;-74
2021/01/04 10:01:04;;;;;;;12.07;10.10;;;;;;;-0.30;100.00;97727.22;5013413;28;20232;-76
2021/01/04 10:03:31;;;;;;;13.50;9.70;;;;;;;-0.25;100.00;97721.72;5007190;28;20697;-76
2021/01/04 10:05:58;;;;;;;12.37;11.07;;;;;;;-0.19;100.00;97720.47;5009380;28;20677;-74
2021/01/04 10:08:27;;;;;;;10.37;9.27;;;;;;;-0.39;100.00;97721.78;5007921;28;20202;-75
2021/01/04 10:10:57;;;;;;;11.93;10.73;;;;;;;-0.42;100.00;97716.78;5007392;28;20305;-75
2021/01/04 10:13:26;;;;;;;12.33;11.03;;;;;;;-0.30;100.00;97721.19;5011129;28;20658;-75
2021/01/04 10:15:54;;;;;;;13.03;10.27;;;;;;;-0.38;100.00;97724.31;5004015;28;20208;-74
2021/01/04 10:18:34;;;;;;;12.50;10.80;;;;;;;-0.44;100.00;97722.13;5012901;28;20208;-74
2021/01/04 10:21:01;;;;;;;12.13;10.27;;;;;;;-0.42;100.00;97716.78;5005899;28;20220;-74
2021/01/04 10:23:33;;;;;;;12.47;10.80;;;;;;;-0.33;100.00;97719.63;5006132;28;20228;-73
2021/01/04 10:26:21;;;;;;;10.57;9.50;;;;;;;-0.43;100.00;97713.38;5008624;28;20502;-74
2021/01/04 10:28:50;;;;;;;11.30;9.80;;;;;;;-0.45;100.00;97710.84;5010200;28;20197;-74
2021/01/04 10:31:23;;;;;;;11.27;10.07;;;;;;;-0.44;100.00;97716.91;5008592;28;20467;-75
2021/01/04 10:33:50;;;;;;;12.63;11.27;;;;;;;-0.52;100.00;97713.97;5007407;28;20209;-73
2021/01/04 10:36:21;;;;;;;12.50;10.40;;;;;;;-0.42;100.00;97709.84;5006682;28;20476;-76
2021/01/04 10:38:56;;;;;;;12.83;10.80;;;;;;;-0.48;100.00;97708.47;4998168;28;20276;-73
2021/01/04 10:41:27;;;;;;;11.07;9.90;;;;;;;-0.52;100.00;97703.56;5000196;28;20239;-72
2021/01/04 10:44:06;;;;;;;11.10;10.00;;;;;;;-0.50;100.00;97701.69;5007534;28;20193;-74
2021/01/04 10:46:36;;;;;;;13.47;10.60;;;;;;;-0.52;99.33;97700.97;4998945;28;20209;-73
2021/01/04 10:49:05;;;;;;;11.47;10.27;;;;;;;-0.37;99.18;97702.53;4992974;28;20218;-71
2021/01/04 10:51:34;;;;;;;12.87;11.13;;;;;;;-0.34;98.01;97702.34;5006052;28;21005;-73
2021/01/04 10:54:16;;;;;;;14.37;10.83;;;;;;;-0.37;97.30;97694.72;5006320;28;20211;-74
2021/01/04 10:56:53;;;;;;;12.53;9.90;;;;;;;-0.46;98.94;97700.56;4998290;28;20295;-74
2021/01/04 10:59:32;;;;;;;15.33;11.33;;;;;;;-0.44;98.92;97696.06;4996155;28;20229;-74
2021/01/04 11:02:00;;;;;;;13.27;11.87;;;;;;;-0.45;99.85;97691.81;4994989;28;20221;-74
2021/01/04 11:04:27;;;;;;;12.60;10.60;;;;;;;-0.27;97.31;97687.13;4997908;28;20462;-74
2021/01/04 11:07:07;;;;;;;12.17;10.33;;;;;;;-0.28;94.58;97689.84;4995785;28;20520;-73
2021/01/04 11:09:35;;;;;;;11.97;9.90;;;;;;;-0.42;95.79;97689.00;4998388;28;20236;-74
2021/01/04 11:12:13;;;;;;;9.97;8.87;;;;;;;-0.28;93.76;97684.63;4994804;28;20252;-72
2021/01/04 11:14:52;;;;;;;7.90;7.10;;;;;;;-0.19;90.90;97678.78;4990255;28;20547;-74
2021/01/04 11:17:21;;;;;;;8.73;7.80;;;;;;;-0.16;90.71;97673.41;5004571;28;20208;-74
2021/01/04 11:19:49;;;;;;;8.97;8.07;;;;;;;-0.04;92.68;97667.34;4999436;28;20320;-75
2021/01/04 11:22:23;;;;;;;8.43;7.53;;;;;;;-0.02;91.08;97664.63;5004879;28;20835;-75
2021/01/04 11:24:51;;;;;;;8.33;7.40;;;;;;;-0.24;91.26;97673.91;5004921;28;20201;-75
2021/01/04 11:27:18;;;;;;;9.37;8.47;;;;;;;0.14;89.42;97677.44;5006148;28;20208;-74
2021/01/04 11:29:46;;;;;;;10.37;8.27;;;;;;;0.03;89.62;97664.31;5002160;28;20212;-74
2021/01/04 11:32:15;;;;;;;8.30;7.50;;;;;;;0.11;89.92;97662.84;5000507;28;20468;-75
2021/01/04 11:34:44;;;;;;;9.00;8.20;;;;;;;0.18;89.99;97663.25;5001409;28;20239;-75
2021/01/04 11:37:11;;;;;;;9.70;8.53;;;;;;;0.24;90.04;97657.63;5000307;28;20215;-75
2021/01/04 11:39:38;;;;;;;10.03;7.73;;;;;;;0.23;88.91;97655.97;5003514;28;20423;-72
2021/01/04 11:42:06;;;;;;;9.90;8.33;;;;;;;-0.04;90.49;97659.53;5010756;28;20229;-74
2021/01/04 11:44:33;;;;;;;9.93;8.80;;;;;;;-0.04;91.52;97654.31;4999898;28;20209;-74
2021/01/04 11:47:01;;;;;;;10.97;9.57;;;;;;;-0.08;91.91;97655.47;5004364;28;20657;-75
2021/01/04 11:49:28;;;;;;;10.60;9.27;;;;;;;-0.12;93.03;97648.81;5004048;28;20634;-73
2021/01/04 11:51:55;;;;;;;10.70;9.60;;;;;;;-0.02;91.55;97648.97;5007866;28;20967;-74
2021/01/04 11:54:23;;;;;;;10.17;9.27;;;;;;;0.13;91.74;97647.09;4995365;28;20295;-75